createdAt,value
2017-06-13T00:00:28.442Z,16.92
2017-06-13T00:03:01.174Z,16.88
2017-06-13T00:05:33.282Z,16.85
2017-06-13T00:08:05.623Z,16.88
2017-06-13T00:10:37.938Z,16.88
2017-06-13T00:13:10.572Z,16.90
2017-06-13T00:15:43.047Z,16.90
2017-06-13T00:18:15.490Z,16.89
2017-06-13T00:20:47.903Z,16.87
2017-06-13T00:23:20.208Z,16.86
2017-06-13T00:25:52.743Z,16.87
2017-06-13T00:28:25.015Z,16.88
2017-06-13T00:30:57.431Z,16.87
2017-06-13T00:33:29.795Z,16.84
2017-06-13T00:36:02.255Z,16.82
2017-06-13T00:38:34.548Z,16.81
2017-06-13T00:41:06.994Z,16.78
2017-06-13T00:43:39.411Z,16.74
2017-06-13T00:46:12.014Z,16.77
2017-06-13T00:48:44.204Z,16.81
2017-06-13T00:51:16.687Z,16.81
2017-06-13T00:53:49.152Z,16.83
2017-06-13T00:56:21.528Z,16.84
2017-06-13T00:58:53.825Z,16.79
2017-06-13T01:01:26.210Z,16.75
2017-06-13T01:03:58.558Z,16.71
2017-06-13T01:06:30.996Z,16.69
2017-06-13T01:09:03.394Z,16.69
2017-06-13T01:11:36.103Z,16.71
2017-06-13T01:14:08.268Z,16.71
2017-06-13T01:16:40.768Z,16.73
2017-06-13T01:19:13.114Z,16.67
2017-06-13T01:21:45.468Z,16.64
2017-06-13T01:24:17.823Z,16.64
2017-06-13T01:26:50.275Z,16.66
2017-06-13T01:29:22.783Z,16.60
2017-06-13T01:31:55.172Z,16.57
2017-06-13T01:34:27.630Z,16.57
2017-06-13T01:37:00.406Z,16.63
2017-06-13T01:39:32.883Z,16.65
2017-06-13T01:42:05.008Z,16.65
2017-06-13T01:44:37.338Z,16.67
2017-06-13T01:47:09.800Z,16.67
2017-06-13T01:49:42.582Z,16.66
2017-06-13T01:52:15.083Z,16.62
2017-06-13T01:54:47.552Z,16.61
2017-06-13T01:57:19.994Z,16.55
2017-06-13T01:59:52.385Z,16.49
2017-06-13T02:02:24.702Z,16.46
2017-06-13T02:04:57.130Z,16.46
2017-06-13T02:07:29.549Z,16.47
2017-06-13T02:10:02.694Z,16.47
2017-06-13T02:12:35.394Z,16.50
2017-06-13T02:15:07.822Z,16.52
2017-06-13T02:17:40.354Z,16.49
2017-06-13T02:20:12.732Z,16.47
2017-06-13T02:22:45.196Z,16.45
2017-06-13T02:25:17.607Z,16.44
2017-06-13T02:27:50.028Z,16.50
2017-06-13T02:30:22.527Z,16.51
2017-06-13T02:32:55.023Z,16.44
2017-06-13T02:35:27.446Z,16.45
2017-06-13T02:37:59.799Z,16.48
2017-06-13T02:40:32.107Z,16.49
2017-06-13T02:43:04.617Z,16.44
2017-06-13T02:45:36.923Z,16.42
2017-06-13T02:48:09.627Z,16.45
2017-06-13T02:50:41.808Z,16.43
2017-06-13T02:53:14.580Z,16.39
2017-06-13T02:55:46.751Z,16.37
2017-06-13T02:58:19.239Z,16.35
2017-06-13T03:00:51.660Z,16.34
2017-06-13T03:03:31.390Z,16.29
2017-06-13T03:06:03.827Z,16.28
2017-06-13T03:08:36.348Z,16.31
2017-06-13T03:11:08.743Z,16.27
2017-06-13T03:13:41.083Z,16.22
2017-06-13T03:16:13.928Z,16.19
2017-06-13T03:18:46.092Z,16.16
2017-06-13T03:21:18.394Z,16.18
2017-06-13T03:23:50.872Z,16.18
2017-06-13T03:26:23.320Z,16.13
2017-06-13T03:28:56.156Z,16.14
2017-06-13T03:31:28.288Z,16.07
2017-06-13T03:34:00.502Z,16.05
2017-06-13T03:36:33.252Z,16.04
2017-06-13T03:39:05.462Z,16.02
2017-06-13T03:41:37.829Z,15.94
2017-06-13T03:44:10.159Z,15.90
2017-06-13T03:46:42.918Z,15.84
2017-06-13T03:49:14.928Z,15.86
2017-06-13T03:51:47.299Z,15.85
2017-06-13T03:54:19.731Z,15.90
2017-06-13T03:56:52.056Z,15.91
2017-06-13T03:59:24.443Z,15.92
2017-06-13T04:01:56.843Z,15.98
2017-06-13T04:04:29.254Z,16.03
2017-06-13T04:07:01.532Z,16.03
2017-06-13T04:09:33.935Z,16.12
2017-06-13T04:12:06.844Z,16.15
2017-06-13T04:14:38.732Z,16.17
2017-06-13T04:17:11.187Z,16.20
2017-06-13T04:19:43.620Z,16.25
2017-06-13T04:22:16.046Z,16.30
2017-06-13T04:24:48.508Z,16.25
2017-06-13T04:27:20.927Z,16.29
2017-06-13T04:29:53.283Z,16.43
2017-06-13T04:32:25.690Z,16.58
2017-06-13T04:34:58.651Z,16.63
2017-06-13T04:37:30.644Z,16.68
2017-06-13T04:40:03.043Z,16.73
2017-06-13T04:42:35.343Z,16.75
2017-06-13T04:45:07.831Z,16.79
2017-06-13T04:47:40.282Z,16.75
2017-06-13T04:50:13.100Z,16.69
2017-06-13T04:52:45.084Z,16.70
2017-06-13T04:55:17.490Z,16.70
2017-06-13T04:57:49.859Z,16.70
2017-06-13T05:00:23.240Z,16.64
2017-06-13T05:02:55.602Z,16.59
2017-06-13T05:05:27.971Z,16.53
2017-06-13T05:08:00.414Z,16.58
2017-06-13T05:10:32.867Z,16.59
2017-06-13T05:13:05.277Z,16.63
2017-06-13T05:15:37.676Z,16.68
2017-06-13T05:18:10.218Z,16.79
2017-06-13T05:20:42.615Z,16.95
2017-06-13T05:23:15.063Z,17.01
2017-06-13T05:25:47.459Z,16.94
2017-06-13T05:28:20.123Z,17.00
2017-06-13T05:30:52.760Z,16.95
2017-06-13T05:33:24.975Z,17.07
2017-06-13T05:35:58.450Z,17.17
2017-06-13T05:38:30.931Z,17.31
2017-06-13T05:41:03.433Z,17.34
2017-06-13T05:43:35.835Z,17.35
2017-06-13T05:46:08.299Z,17.56
2017-06-13T05:48:40.703Z,17.90
2017-06-13T05:51:13.206Z,17.87
2017-06-13T05:53:45.643Z,18.06
2017-06-13T05:56:18.235Z,18.03
2017-06-13T05:58:50.587Z,18.03
2017-06-13T06:01:23.216Z,17.99
2017-06-13T06:03:55.704Z,18.04
2017-06-13T06:06:29.840Z,18.14
2017-06-13T06:09:02.641Z,18.13
2017-06-13T06:11:35.029Z,18.07
2017-06-13T06:14:07.835Z,18.00
2017-06-13T06:16:40.871Z,17.87
2017-06-13T06:19:13.259Z,17.95
2017-06-13T06:21:45.687Z,18.16
2017-06-13T06:24:18.275Z,18.48
2017-06-13T06:26:50.590Z,18.87
2017-06-13T06:29:22.951Z,18.77
2017-06-13T06:31:55.346Z,18.90
2017-06-13T06:34:27.683Z,19.01
2017-06-13T06:37:00.077Z,19.02
2017-06-13T06:39:32.447Z,19.14
2017-06-13T06:42:05.036Z,19.15
2017-06-13T06:44:37.452Z,19.27
2017-06-13T06:47:09.964Z,19.26
2017-06-13T06:49:42.415Z,19.27
2017-06-13T06:52:14.808Z,19.42
2017-06-13T06:54:47.376Z,19.47
2017-06-13T06:57:19.855Z,19.61
2017-06-13T06:59:53.000Z,19.71
2017-06-13T07:02:25.649Z,19.66
2017-06-13T07:04:58.067Z,19.91
2017-06-13T07:07:30.555Z,20.90
2017-06-13T07:10:03.091Z,20.97
2017-06-13T07:12:35.371Z,20.72
2017-06-13T07:15:07.819Z,20.92
2017-06-13T07:17:40.243Z,20.79
2017-06-13T07:20:12.567Z,20.27
2017-06-13T07:22:45.083Z,20.38
2017-06-13T07:25:17.585Z,20.66
2017-06-13T07:27:50.216Z,20.34
2017-06-13T07:30:22.839Z,20.45
2017-06-13T07:32:54.942Z,20.35
2017-06-13T07:35:27.362Z,20.15
2017-06-13T07:37:59.771Z,20.16
2017-06-13T07:40:32.351Z,20.14
2017-06-13T07:43:04.806Z,20.32
2017-06-13T07:45:37.294Z,20.47
2017-06-13T07:48:09.792Z,20.68
2017-06-13T07:50:42.154Z,20.86
2017-06-13T07:53:14.803Z,21.13
2017-06-13T07:55:47.727Z,21.28
2017-06-13T07:58:21.648Z,21.48
2017-06-13T08:00:54.100Z,21.18
2017-06-13T08:03:26.586Z,20.86
2017-06-13T08:05:58.891Z,20.48
2017-06-13T08:08:31.319Z,20.18
2017-06-13T08:11:04.038Z,19.99
2017-06-13T08:13:36.133Z,20.03
2017-06-13T08:16:08.528Z,20.27
2017-06-13T08:18:40.938Z,20.37
2017-06-13T08:21:13.320Z,20.11
2017-06-13T08:23:45.923Z,19.87
2017-06-13T08:26:18.443Z,19.60
2017-06-13T08:28:50.844Z,19.52
2017-06-13T08:31:23.291Z,19.55
2017-06-13T08:34:02.916Z,19.37
2017-06-13T08:36:35.339Z,19.25
2017-06-13T08:39:07.652Z,19.16
2017-06-13T08:41:39.892Z,19.06
2017-06-13T08:44:12.372Z,19.11
2017-06-13T08:46:44.791Z,19.21
2017-06-13T08:49:18.244Z,19.25
2017-06-13T08:51:50.694Z,19.14
2017-06-13T08:54:23.020Z,19.03
2017-06-13T08:56:55.406Z,18.94
2017-06-13T08:59:28.096Z,18.96
2017-06-13T09:02:00.208Z,19.19
2017-06-13T09:04:32.568Z,19.38
2017-06-13T09:07:04.862Z,19.83
2017-06-13T09:09:37.434Z,20.01
2017-06-13T09:12:09.867Z,20.14
2017-06-13T09:14:49.291Z,20.22
2017-06-13T09:17:21.803Z,20.06
2017-06-13T09:19:54.202Z,20.03
2017-06-13T09:22:26.744Z,19.80
2017-06-13T09:24:59.115Z,19.89
2017-06-13T09:27:31.864Z,20.18
2017-06-13T09:30:04.125Z,20.76
2017-06-13T09:32:36.235Z,20.98
2017-06-13T09:35:08.510Z,21.18
2017-06-13T09:37:40.875Z,21.15
2017-06-13T09:40:13.411Z,21.25
2017-06-13T09:42:45.831Z,21.03
2017-06-13T09:45:18.214Z,20.88
2017-06-13T09:47:50.971Z,20.65
2017-06-13T09:50:23.183Z,20.56
2017-06-13T09:52:55.660Z,20.57
2017-06-13T09:55:28.131Z,20.66
2017-06-13T09:58:00.688Z,20.56
2017-06-13T10:00:33.112Z,20.80
2017-06-13T10:03:05.540Z,20.87
2017-06-13T10:05:38.183Z,21.21
2017-06-13T10:08:10.583Z,21.92
2017-06-13T10:10:44.324Z,22.64
2017-06-13T10:13:16.482Z,22.96
2017-06-13T10:15:48.908Z,22.80
2017-06-13T10:18:21.241Z,23.04
2017-06-13T10:20:53.762Z,22.97
2017-06-13T10:23:26.144Z,22.63
2017-06-13T10:25:58.558Z,22.17
2017-06-13T10:28:30.938Z,21.55
2017-06-13T10:31:04.450Z,21.05
2017-06-13T10:33:37.738Z,20.74
2017-06-13T10:36:10.532Z,20.20
2017-06-13T10:38:43.035Z,20.22
2017-06-13T10:41:15.458Z,19.94
2017-06-13T10:43:47.764Z,19.83
2017-06-13T10:46:20.580Z,19.76
2017-06-13T10:48:52.776Z,19.80
2017-06-13T10:51:25.315Z,19.84
2017-06-13T10:53:57.483Z,19.94
2017-06-13T10:56:29.903Z,19.97
2017-06-13T10:59:02.288Z,20.11
2017-06-13T11:01:34.888Z,20.27
2017-06-13T11:04:07.171Z,20.47
2017-06-13T11:06:39.554Z,20.62
2017-06-13T11:09:12.052Z,20.88
2017-06-13T11:11:44.582Z,20.91
2017-06-13T11:14:17.144Z,20.37
2017-06-13T11:16:49.528Z,20.31
2017-06-13T11:19:22.407Z,20.23
2017-06-13T11:21:54.494Z,20.10
2017-06-13T11:24:26.899Z,20.01
2017-06-13T11:26:59.339Z,19.92
2017-06-13T11:29:31.703Z,19.96
2017-06-13T11:32:04.669Z,20.00
2017-06-13T11:34:36.495Z,19.97
2017-06-13T11:37:09.091Z,19.94
2017-06-13T11:39:41.500Z,19.97
2017-06-13T11:42:13.911Z,19.93
2017-06-13T11:44:46.261Z,19.96
2017-06-13T11:47:18.650Z,20.26
2017-06-13T11:49:51.120Z,20.64
2017-06-13T11:52:23.353Z,20.87
2017-06-13T11:54:55.808Z,21.24
2017-06-13T11:57:28.329Z,21.50
2017-06-13T12:00:00.672Z,21.77
2017-06-13T12:02:33.126Z,21.94
2017-06-13T12:05:06.027Z,22.10
2017-06-13T12:07:38.011Z,22.45
2017-06-13T12:10:10.355Z,22.50
2017-06-13T12:12:42.734Z,22.80
2017-06-13T12:15:15.309Z,22.58
2017-06-13T12:17:47.990Z,22.55
2017-06-13T12:20:20.347Z,22.53
2017-06-13T12:22:52.835Z,22.36
2017-06-13T12:25:25.227Z,22.40
2017-06-13T12:27:57.731Z,22.52
2017-06-13T12:30:29.999Z,22.43
2017-06-13T12:33:02.404Z,22.19
2017-06-13T12:35:34.734Z,22.37
2017-06-13T12:38:07.119Z,22.23
2017-06-13T12:40:39.470Z,22.29
2017-06-13T12:43:11.903Z,22.42
2017-06-13T12:45:44.225Z,22.91
2017-06-13T12:48:16.527Z,23.53
2017-06-13T12:50:48.744Z,24.15
2017-06-13T12:53:21.144Z,24.41
2017-06-13T12:55:53.463Z,24.59
2017-06-13T12:58:27.483Z,24.84
2017-06-13T13:00:59.467Z,25.61
2017-06-13T13:03:38.791Z,26.50
2017-06-13T13:06:11.340Z,27.37
2017-06-13T13:08:43.936Z,27.26
2017-06-13T13:11:16.133Z,26.42
2017-06-13T13:13:48.607Z,26.81
2017-06-13T13:16:21.022Z,27.21
2017-06-13T13:18:53.518Z,27.53
2017-06-13T13:21:25.894Z,26.94
2017-06-13T13:23:58.325Z,26.00
2017-06-13T13:26:30.597Z,25.44
2017-06-13T13:29:03.302Z,24.88
2017-06-13T13:31:35.364Z,24.46
2017-06-13T13:34:07.741Z,24.34
2017-06-13T13:36:39.984Z,23.92
2017-06-13T13:39:12.447Z,23.63
2017-06-13T13:41:44.824Z,23.64
2017-06-13T13:44:17.247Z,23.73
2017-06-13T13:46:49.570Z,24.02
2017-06-13T13:49:22.035Z,23.83
2017-06-13T13:51:54.564Z,23.79
2017-06-13T13:54:26.915Z,23.57
2017-06-13T13:56:59.390Z,23.51
2017-06-13T13:59:32.238Z,23.39
2017-06-13T14:02:04.323Z,23.33
2017-06-13T14:04:36.840Z,23.28
2017-06-13T14:07:09.252Z,23.11
2017-06-13T14:09:42.357Z,23.00
2017-06-13T14:12:14.205Z,22.76
2017-06-13T14:14:46.692Z,22.53
2017-06-13T14:17:19.148Z,22.45
2017-06-13T14:19:51.618Z,22.45
2017-06-13T14:22:23.991Z,22.48
2017-06-13T14:24:56.538Z,22.56
2017-06-13T14:27:28.875Z,22.68
2017-06-13T14:30:01.348Z,22.91
2017-06-13T14:32:33.694Z,23.16
2017-06-13T14:35:06.096Z,23.35
2017-06-13T14:37:38.342Z,23.54
2017-06-13T14:40:10.740Z,23.30
2017-06-13T14:42:43.311Z,23.03
2017-06-13T14:45:15.836Z,23.12
2017-06-13T14:47:47.871Z,23.06
2017-06-13T14:50:20.322Z,22.89
2017-06-13T14:52:52.808Z,22.40
2017-06-13T14:55:25.016Z,22.12
2017-06-13T14:58:04.308Z,22.22
2017-06-13T15:00:36.869Z,22.43
2017-06-13T15:03:10.182Z,22.54
2017-06-13T15:05:42.699Z,22.67
2017-06-13T15:08:15.170Z,23.11
2017-06-13T15:10:47.522Z,23.41
2017-06-13T15:13:19.882Z,23.31
2017-06-13T15:15:52.514Z,22.96
2017-06-13T15:18:24.973Z,23.00
2017-06-13T15:20:57.390Z,23.25
2017-06-13T15:23:29.659Z,23.47
2017-06-13T15:26:02.171Z,23.62
2017-06-13T15:28:34.652Z,23.75
2017-06-13T15:31:06.915Z,23.86
2017-06-13T15:33:39.379Z,23.99
2017-06-13T15:36:12.038Z,24.06
2017-06-13T15:38:44.065Z,23.95
2017-06-13T15:41:16.632Z,23.86
2017-06-13T15:43:48.992Z,23.93
2017-06-13T15:46:28.134Z,23.94
2017-06-13T15:49:00.970Z,23.86
2017-06-13T15:51:33.192Z,23.72
2017-06-13T15:54:05.516Z,23.48
2017-06-13T15:56:37.906Z,23.34
2017-06-13T15:59:10.584Z,23.29
2017-06-13T16:01:42.569Z,23.17
2017-06-13T16:04:14.926Z,23.06
2017-06-13T16:06:47.159Z,22.96
2017-06-13T16:09:19.458Z,22.97
2017-06-13T16:11:51.891Z,23.11
2017-06-13T16:14:24.227Z,23.05
2017-06-13T16:16:56.619Z,22.89
2017-06-13T16:19:35.943Z,22.97
2017-06-13T16:22:08.940Z,23.14
2017-06-13T16:24:41.163Z,23.16
2017-06-13T16:27:13.648Z,23.23
2017-06-13T16:29:45.868Z,23.37
2017-06-13T16:32:18.388Z,23.45
2017-06-13T16:34:50.760Z,23.41
2017-06-13T16:37:23.187Z,23.25
2017-06-13T16:39:55.456Z,23.16
2017-06-13T16:42:27.914Z,22.94
2017-06-13T16:45:00.382Z,22.97
2017-06-13T16:47:32.665Z,23.09
2017-06-13T16:50:05.065Z,23.07
2017-06-13T16:52:37.428Z,22.74
2017-06-13T16:55:09.684Z,22.51
2017-06-13T16:57:42.180Z,22.49
2017-06-13T17:00:14.626Z,22.43
2017-06-13T17:02:47.137Z,22.34
2017-06-13T17:05:19.535Z,22.30
2017-06-13T17:07:51.958Z,22.17
2017-06-13T17:10:24.422Z,22.19
2017-06-13T17:12:56.940Z,22.22
2017-06-13T17:15:29.307Z,22.24
2017-06-13T17:18:01.708Z,22.29
2017-06-13T17:20:34.075Z,22.43
2017-06-13T17:23:06.531Z,22.40
2017-06-13T17:25:38.779Z,22.42
2017-06-13T17:28:11.516Z,22.36
2017-06-13T17:30:43.704Z,22.36
2017-06-13T17:33:16.142Z,22.34
2017-06-13T17:35:48.503Z,22.36
2017-06-13T17:38:20.902Z,22.35
2017-06-13T17:40:53.315Z,22.30
2017-06-13T17:43:25.712Z,22.18
2017-06-13T17:45:58.003Z,22.12
2017-06-13T17:48:31.138Z,22.07
2017-06-13T17:51:02.989Z,22.10
2017-06-13T17:53:35.440Z,22.17
2017-06-13T17:56:07.981Z,22.14
2017-06-13T17:58:40.411Z,22.16
2017-06-13T18:01:12.764Z,22.04
2017-06-13T18:03:45.255Z,21.81
2017-06-13T18:06:17.576Z,21.65
2017-06-13T18:08:49.923Z,21.53
2017-06-13T18:11:22.329Z,21.38
2017-06-13T18:13:54.796Z,21.30
2017-06-13T18:16:27.051Z,21.25
2017-06-13T18:18:59.434Z,21.16
2017-06-13T18:21:32.059Z,21.06
2017-06-13T18:24:04.535Z,21.02
2017-06-13T18:26:36.935Z,20.96
2017-06-13T18:29:08.999Z,20.93
2017-06-13T18:31:41.371Z,20.89
2017-06-13T18:34:13.775Z,20.89
2017-06-13T18:36:46.149Z,20.87
2017-06-13T18:39:18.479Z,20.86
2017-06-13T18:41:50.847Z,20.80
2017-06-13T18:44:23.403Z,20.74
2017-06-13T18:46:55.808Z,20.58
2017-06-13T18:49:28.475Z,20.48
2017-06-13T18:52:00.927Z,20.35
2017-06-13T18:54:33.303Z,20.28
2017-06-13T18:57:05.998Z,20.21
2017-06-13T18:59:38.256Z,20.19
2017-06-13T19:02:10.579Z,20.16
2017-06-13T19:04:43.363Z,20.17
2017-06-13T19:07:15.618Z,20.16
2017-06-13T19:09:48.028Z,20.08
2017-06-13T19:12:20.435Z,19.98
2017-06-13T19:14:52.766Z,19.98
2017-06-13T19:17:25.227Z,19.87
2017-06-13T19:19:58.038Z,19.74
2017-06-13T19:22:29.982Z,19.65
2017-06-13T19:25:02.510Z,19.57
2017-06-13T19:27:34.883Z,19.50
2017-06-13T19:30:07.456Z,19.38
2017-06-13T19:32:39.608Z,19.30
2017-06-13T19:35:12.364Z,19.18
2017-06-13T19:37:44.369Z,19.08
2017-06-13T19:40:16.702Z,18.97
2017-06-13T19:42:48.956Z,18.84
2017-06-13T19:45:21.750Z,18.75
2017-06-13T19:47:53.960Z,18.63
2017-06-13T19:50:26.279Z,18.57
2017-06-13T19:52:58.778Z,18.48
2017-06-13T19:55:31.193Z,18.37
2017-06-13T19:58:03.743Z,18.29
2017-06-13T20:00:36.376Z,18.19
2017-06-13T20:03:08.330Z,18.10
2017-06-13T20:05:40.629Z,18.00
2017-06-13T20:08:13.101Z,17.92
2017-06-13T20:10:45.623Z,17.80
2017-06-13T20:13:17.987Z,17.67
2017-06-13T20:15:50.418Z,17.60
2017-06-13T20:18:22.915Z,17.52
2017-06-13T20:20:55.247Z,17.46
2017-06-13T20:23:27.570Z,17.39
2017-06-13T20:25:59.671Z,17.31
2017-06-13T20:28:32.399Z,17.23
2017-06-13T20:31:04.319Z,17.17
2017-06-13T20:33:42.252Z,17.07
2017-06-13T20:36:14.512Z,16.97
2017-06-13T20:38:46.834Z,16.91
2017-06-13T20:41:19.700Z,16.85
2017-06-13T20:43:51.619Z,16.77
2017-06-13T20:46:26.078Z,16.72
2017-06-13T20:48:58.372Z,16.59
2017-06-13T20:51:30.911Z,16.52
2017-06-13T20:54:03.214Z,16.48
2017-06-13T20:56:35.675Z,16.37
2017-06-13T20:59:07.948Z,16.33
2017-06-13T21:01:40.311Z,16.29
2017-06-13T21:04:12.656Z,16.26
2017-06-13T21:06:44.927Z,16.18
2017-06-13T21:09:17.480Z,16.06
2017-06-13T21:11:49.911Z,15.99
2017-06-13T21:14:22.150Z,15.95
2017-06-13T21:16:54.507Z,15.89
2017-06-13T21:19:26.827Z,15.83
2017-06-13T21:21:59.171Z,15.78
2017-06-13T21:24:31.597Z,15.72
2017-06-13T21:27:04.028Z,15.66
2017-06-13T21:29:36.452Z,15.62
2017-06-13T21:32:08.895Z,15.58
2017-06-13T21:34:41.209Z,15.57
2017-06-13T21:37:13.540Z,15.47
2017-06-13T21:39:45.879Z,15.41
2017-06-13T21:42:18.339Z,15.34
2017-06-13T21:44:50.572Z,15.29
2017-06-13T21:47:23.096Z,15.24
2017-06-13T21:49:56.572Z,15.22
2017-06-13T21:52:29.064Z,15.16
2017-06-13T21:55:01.395Z,15.12
2017-06-13T21:57:33.950Z,15.01
2017-06-13T22:00:06.351Z,14.96
2017-06-13T22:02:38.801Z,14.94
2017-06-13T22:05:11.291Z,14.89
2017-06-13T22:07:43.400Z,14.85
2017-06-13T22:10:15.681Z,14.83
2017-06-13T22:12:48.008Z,14.77
2017-06-13T22:15:20.432Z,14.73
2017-06-13T22:17:52.807Z,14.73
2017-06-13T22:20:25.140Z,14.69
2017-06-13T22:22:57.631Z,14.62
2017-06-13T22:25:29.959Z,14.63
2017-06-13T22:28:02.577Z,14.57
2017-06-13T22:30:35.027Z,14.56
2017-06-13T22:33:07.535Z,14.52
2017-06-13T22:35:40.380Z,14.47
2017-06-13T22:38:12.507Z,14.45
2017-06-13T22:40:44.960Z,14.38
2017-06-13T22:43:17.454Z,14.35
2017-06-13T22:45:49.907Z,14.36
2017-06-13T22:48:22.755Z,14.34
2017-06-13T22:50:54.969Z,14.26
2017-06-13T22:53:27.445Z,14.20
2017-06-13T22:55:59.988Z,14.16
2017-06-13T22:58:32.399Z,14.12
2017-06-13T23:01:04.607Z,14.09
2017-06-13T23:03:37.155Z,14.06
2017-06-13T23:06:09.531Z,14.03
2017-06-13T23:08:42.018Z,13.99
2017-06-13T23:11:14.374Z,13.96
2017-06-13T23:13:46.802Z,13.92
2017-06-13T23:16:19.139Z,13.87
2017-06-13T23:18:51.543Z,13.85
2017-06-13T23:21:23.951Z,13.80
2017-06-13T23:23:57.372Z,13.75
2017-06-13T23:26:30.096Z,13.74
2017-06-13T23:29:02.217Z,13.71
2017-06-13T23:31:34.675Z,13.65
2017-06-13T23:34:07.119Z,13.60
2017-06-13T23:36:39.516Z,13.58
2017-06-13T23:39:13.028Z,13.54
2017-06-13T23:41:45.383Z,13.48
2017-06-13T23:44:18.519Z,13.46
2017-06-13T23:46:51.155Z,13.39
2017-06-13T23:49:23.462Z,13.31
2017-06-13T23:51:55.894Z,13.19
2017-06-13T23:54:28.396Z,13.13
2017-06-13T23:57:00.946Z,13.05
2017-06-13T23:59:33.364Z,13.04
